createdAt,value
2023-04-10T00:00:38.156Z,76.58
2023-04-10T00:03:05.127Z,76.15
2023-04-10T00:05:34.533Z,76.57
2023-04-10T00:08:04.082Z,77.08
2023-04-10T00:10:33.453Z,77.62
2023-04-10T00:13:00.971Z,77.84
2023-04-10T00:15:28.864Z,78.20
2023-04-10T00:17:55.712Z,78.66
2023-04-10T00:20:23.267Z,78.74
2023-04-10T00:22:49.968Z,78.38
2023-04-10T00:25:19.193Z,77.80
2023-04-10T00:27:46.099Z,77.47
2023-04-10T00:30:15.017Z,77.90
2023-04-10T00:32:44.144Z,77.35
2023-04-10T00:35:15.648Z,78.22
2023-04-10T00:37:44.462Z,78.83
2023-04-10T00:40:11.405Z,79.30
2023-04-10T00:42:40.370Z,79.16
2023-04-10T00:45:07.403Z,78.04
2023-04-10T00:47:35.252Z,78.49
2023-04-10T00:50:02.030Z,77.70
2023-04-10T00:52:32.237Z,77.54
2023-04-10T00:55:01.036Z,77.59
2023-04-10T00:57:30.424Z,77.77
2023-04-10T00:59:57.030Z,77.21
2023-04-10T01:02:23.875Z,77.00
2023-04-10T01:04:50.875Z,78.08
2023-04-10T01:07:18.948Z,78.67
2023-04-10T01:09:59.103Z,78.48
2023-04-10T01:12:37.929Z,79.54
2023-04-10T01:15:04.542Z,79.50
2023-04-10T01:17:45.666Z,80.64
2023-04-10T01:20:19.168Z,80.78
2023-04-10T01:23:21.947Z,79.47
2023-04-10T01:25:54.067Z,79.33
2023-04-10T01:28:39.121Z,78.65
2023-04-10T01:31:08.855Z,78.05
2023-04-10T01:33:56.838Z,77.49
2023-04-10T01:36:29.584Z,79.72
2023-04-10T01:38:58.236Z,79.12
2023-04-10T01:41:26.821Z,78.64
2023-04-10T01:44:01.274Z,78.63
2023-04-10T01:46:29.657Z,79.95
2023-04-10T01:48:58.157Z,79.75
2023-04-10T01:51:26.346Z,79.75
2023-04-10T01:53:53.433Z,78.98
2023-04-10T01:56:22.669Z,79.51
2023-04-10T01:58:50.634Z,78.64
2023-04-10T02:01:29.139Z,77.91
2023-04-10T02:03:59.351Z,77.89
2023-04-10T02:06:37.656Z,77.40
2023-04-10T02:09:16.528Z,76.48
2023-04-10T02:11:57.417Z,76.82
2023-04-10T02:14:29.293Z,76.94
2023-04-10T02:17:01.666Z,76.84
2023-04-10T02:19:31.117Z,76.80
2023-04-10T02:22:01.634Z,77.09
2023-04-10T02:24:31.955Z,77.03
2023-04-10T02:26:58.544Z,77.29
2023-04-10T02:29:25.152Z,77.49
2023-04-10T02:31:51.715Z,78.25
2023-04-10T02:34:20.835Z,78.39
2023-04-10T02:36:49.634Z,78.31
2023-04-10T02:39:20.673Z,78.67
2023-04-10T02:41:49.740Z,79.23
2023-04-10T02:44:18.607Z,80.00
2023-04-10T02:46:47.732Z,80.10
2023-04-10T02:49:19.005Z,80.24
2023-04-10T02:51:47.807Z,80.42
2023-04-10T02:54:17.690Z,79.59
2023-04-10T02:56:44.611Z,78.94
2023-04-10T02:59:13.489Z,78.32
2023-04-10T03:01:42.659Z,78.65
2023-04-10T03:04:11.914Z,78.54
2023-04-10T03:06:41.322Z,78.46
2023-04-10T03:09:12.688Z,78.61
2023-04-10T03:11:41.500Z,79.14
2023-04-10T03:14:09.796Z,79.54
2023-04-10T03:16:36.666Z,79.34
2023-04-10T03:19:05.763Z,79.63
2023-04-10T03:21:34.660Z,79.93
2023-04-10T03:24:01.220Z,80.99
2023-04-10T03:26:28.342Z,80.18
2023-04-10T03:28:54.962Z,80.41
2023-04-10T03:31:21.680Z,81.34
2023-04-10T03:33:48.311Z,79.84
2023-04-10T03:36:17.210Z,80.65
2023-04-10T03:38:43.848Z,80.19
2023-04-10T03:41:10.444Z,81.22
2023-04-10T03:43:39.494Z,82.15
2023-04-10T03:46:06.476Z,82.12
2023-04-10T03:48:33.541Z,82.37
2023-04-10T03:51:00.073Z,81.32
2023-04-10T03:53:26.705Z,80.71
2023-04-10T03:55:53.316Z,79.87
2023-04-10T03:58:22.167Z,79.27
2023-04-10T04:00:51.572Z,79.67
2023-04-10T04:03:18.264Z,79.35
2023-04-10T04:05:44.998Z,79.28
2023-04-10T04:08:14.092Z,79.00
2023-04-10T04:10:40.712Z,79.46
2023-04-10T04:13:07.309Z,80.23
2023-04-10T04:15:38.772Z,79.82
2023-04-10T04:18:05.414Z,79.28
2023-04-10T04:20:34.370Z,79.55
2023-04-10T04:23:03.472Z,79.72
2023-04-10T04:25:30.066Z,79.56
2023-04-10T04:27:58.840Z,78.81
2023-04-10T04:30:25.425Z,78.62
2023-04-10T04:32:52.092Z,79.72
2023-04-10T04:35:21.521Z,79.64
2023-04-10T04:37:47.994Z,80.50
2023-04-10T04:40:14.619Z,81.01
2023-04-10T04:42:43.436Z,81.63
2023-04-10T04:45:15.670Z,81.59
2023-04-10T04:47:44.318Z,81.06
2023-04-10T04:50:10.962Z,80.61
2023-04-10T04:52:37.533Z,80.48
2023-04-10T04:55:04.350Z,80.85
2023-04-10T04:57:33.186Z,81.31
2023-04-10T04:59:59.744Z,80.49
2023-04-10T05:02:26.472Z,79.86
2023-04-10T05:04:53.158Z,80.86
2023-04-10T05:07:22.355Z,80.67
2023-04-10T05:09:49.254Z,80.36
2023-04-10T05:12:15.847Z,79.92
2023-04-10T05:14:42.407Z,79.84
2023-04-10T05:17:09.058Z,80.30
2023-04-10T05:19:35.666Z,80.72
2023-04-10T05:22:02.314Z,80.31
2023-04-10T05:24:28.914Z,80.63
2023-04-10T05:26:55.749Z,80.06
2023-04-10T05:29:22.835Z,79.58
2023-04-10T05:31:50.224Z,80.07
2023-04-10T05:34:18.204Z,79.36
2023-04-10T05:36:44.782Z,79.94
2023-04-10T05:39:11.313Z,80.62
2023-04-10T05:41:40.331Z,79.89
2023-04-10T05:44:06.983Z,79.84
2023-04-10T05:46:38.773Z,79.50
2023-04-10T05:49:05.409Z,80.26
2023-04-10T05:51:34.672Z,80.34
2023-04-10T05:54:01.351Z,81.59
2023-04-10T05:56:30.119Z,80.39
2023-04-10T05:58:59.090Z,78.96
2023-04-10T06:01:25.634Z,77.81
2023-04-10T06:03:54.552Z,76.76
2023-04-10T06:06:25.952Z,76.25
2023-04-10T06:08:53.526Z,77.75
2023-04-10T06:11:22.709Z,77.30
2023-04-10T06:13:49.230Z,76.24
2023-04-10T06:16:16.487Z,76.33
2023-04-10T06:18:43.332Z,76.12
2023-04-10T06:21:12.128Z,74.87
2023-04-10T06:23:38.677Z,75.41
2023-04-10T06:26:05.386Z,75.45
2023-04-10T06:28:31.976Z,74.79
2023-04-10T06:30:58.617Z,74.54
2023-04-10T06:33:27.305Z,73.74
2023-04-10T06:35:58.492Z,74.05
2023-04-10T06:38:27.429Z,73.92
2023-04-10T06:40:56.528Z,73.92
2023-04-10T06:43:23.149Z,72.82
2023-04-10T06:45:52.094Z,72.75
2023-04-10T06:48:23.434Z,73.14
2023-04-10T06:50:52.559Z,73.52
2023-04-10T06:53:19.143Z,73.66
2023-04-10T06:55:48.494Z,72.74
2023-04-10T06:58:15.061Z,71.69
2023-04-10T07:00:44.637Z,71.22
2023-04-10T07:03:16.196Z,68.87
2023-04-10T07:05:45.635Z,60.53
2023-04-10T07:08:12.154Z,61.66
2023-04-10T07:10:38.781Z,59.00
2023-04-10T07:13:08.398Z,59.33
2023-04-10T07:15:34.917Z,57.55
2023-04-10T07:18:03.799Z,56.48
2023-04-10T07:20:33.142Z,56.21
2023-04-10T07:22:59.713Z,55.80
2023-04-10T07:25:26.466Z,56.87
2023-04-10T07:27:54.213Z,54.03
2023-04-10T07:30:21.037Z,54.67
2023-04-10T07:32:47.993Z,55.06
2023-04-10T07:35:14.994Z,56.22
2023-04-10T07:37:50.272Z,54.47
2023-04-10T07:40:19.116Z,52.42
2023-04-10T07:42:46.149Z,53.79
2023-04-10T07:45:12.759Z,50.53
2023-04-10T07:47:39.352Z,49.44
2023-04-10T07:50:06.941Z,50.52
2023-04-10T07:52:36.080Z,50.71
2023-04-10T07:55:10.538Z,49.19
2023-04-10T07:57:37.152Z,47.92
2023-04-10T08:00:03.905Z,50.12
2023-04-10T08:02:33.247Z,51.87
2023-04-10T08:05:02.351Z,52.75
2023-04-10T08:07:28.860Z,50.96
2023-04-10T08:09:55.452Z,49.99
2023-04-10T08:12:21.977Z,47.31
2023-04-10T08:14:49.502Z,47.91
2023-04-10T08:17:16.192Z,47.77
2023-04-10T08:19:43.428Z,47.02
2023-04-10T08:22:12.269Z,46.52
2023-04-10T08:24:41.167Z,46.75
2023-04-10T08:27:07.730Z,46.11
2023-04-10T08:29:34.253Z,48.08
2023-04-10T08:32:01.155Z,44.67
2023-04-10T08:34:28.303Z,43.57
2023-04-10T08:36:56.167Z,43.37
2023-04-10T08:39:25.322Z,43.75
2023-04-10T08:41:55.379Z,45.01
2023-04-10T08:44:21.986Z,41.67
2023-04-10T08:46:49.704Z,42.11
2023-04-10T08:49:24.364Z,40.65
2023-04-10T08:52:01.176Z,41.78
2023-04-10T08:54:34.087Z,41.32
2023-04-10T08:57:04.864Z,41.56
2023-04-10T08:59:31.618Z,44.18
2023-04-10T09:01:59.178Z,42.52
2023-04-10T09:04:26.653Z,41.42
2023-04-10T09:06:53.638Z,39.76
2023-04-10T09:09:20.573Z,42.71
2023-04-10T09:12:01.077Z,41.56
2023-04-10T09:21:31.347Z,39.80
2023-04-10T09:24:16.103Z,42.65
2023-04-10T09:26:42.696Z,41.02
2023-04-10T09:29:18.139Z,41.91
2023-04-10T09:31:50.889Z,41.34
2023-04-10T09:34:27.023Z,41.97
2023-04-10T09:36:56.106Z,41.55
2023-04-10T09:46:28.808Z,41.71
2023-04-10T09:49:04.663Z,39.53
2023-04-10T09:51:39.563Z,40.61
2023-04-10T09:54:06.892Z,39.76
2023-04-10T09:56:40.121Z,38.30
2023-04-10T09:59:24.793Z,38.43
2023-04-10T10:02:00.961Z,37.58
2023-04-10T10:04:30.655Z,36.43
2023-04-10T10:07:06.437Z,41.74
2023-04-10T10:09:44.603Z,38.51
2023-04-10T10:19:45.519Z,38.61
2023-04-10T10:22:13.239Z,40.00
2023-04-10T10:24:47.347Z,38.34
2023-04-10T10:27:18.140Z,40.00
2023-04-10T10:29:49.719Z,40.56
2023-04-10T10:32:18.513Z,38.96
2023-04-10T10:34:48.070Z,40.30
2023-04-10T10:37:17.964Z,40.42
2023-04-10T10:39:57.619Z,38.20
2023-04-10T10:42:46.828Z,39.07
2023-04-10T10:45:20.603Z,40.12
2023-04-10T10:47:57.036Z,38.90
2023-04-10T10:50:24.853Z,39.02
2023-04-10T10:52:54.031Z,38.62
2023-04-10T10:55:27.446Z,38.73
2023-04-10T10:58:00.698Z,39.15
2023-04-10T11:00:49.920Z,42.03
2023-04-10T11:03:16.555Z,39.34
2023-04-10T11:05:54.229Z,41.56
2023-04-10T11:08:32.732Z,41.74
2023-04-10T11:11:03.916Z,41.23
2023-04-10T11:13:32.934Z,42.17
2023-04-10T11:16:03.004Z,41.92
2023-04-10T11:18:44.684Z,42.24
2023-04-10T11:21:15.275Z,41.85
2023-04-10T11:23:50.762Z,41.78
2023-04-10T11:26:38.722Z,42.85
2023-04-10T11:29:19.575Z,42.76
2023-04-10T11:31:58.406Z,43.67
2023-04-10T11:34:27.728Z,42.75
2023-04-10T11:36:57.190Z,44.40
2023-04-10T11:39:26.705Z,43.23
2023-04-10T11:41:54.180Z,43.64
2023-04-10T11:44:43.263Z,43.91
2023-04-10T11:47:13.156Z,43.59
2023-04-10T11:49:39.856Z,44.69
2023-04-10T11:52:09.156Z,43.69
2023-04-10T11:54:37.763Z,45.26
2023-04-10T11:57:12.980Z,45.08
2023-04-10T11:59:39.420Z,45.41
2023-04-10T12:02:07.621Z,45.50
2023-04-10T12:04:34.953Z,45.04
2023-04-10T12:07:01.873Z,44.32
2023-04-10T12:09:28.668Z,47.02
2023-04-10T12:11:56.897Z,46.92
2023-04-10T12:14:36.969Z,48.37
2023-04-10T12:17:05.482Z,50.29
2023-04-10T12:19:36.081Z,50.22
2023-04-10T12:22:03.161Z,46.48
2023-04-10T12:24:54.501Z,46.26
2023-04-10T12:27:23.761Z,46.44
2023-04-10T12:29:52.373Z,46.33
2023-04-10T12:32:19.592Z,46.00
2023-04-10T12:34:52.883Z,46.06
2023-04-10T12:37:20.724Z,46.35
2023-04-10T12:39:49.877Z,47.07
2023-04-10T12:42:22.700Z,48.18
2023-04-10T12:44:56.624Z,46.20
2023-04-10T12:47:26.228Z,46.76
2023-04-10T12:50:14.089Z,47.13
2023-04-10T12:52:44.877Z,46.36
2023-04-10T12:55:13.135Z,45.25
2023-04-10T12:57:44.226Z,46.26
2023-04-10T13:00:12.926Z,44.95
2023-04-10T13:02:42.604Z,43.91
2023-04-10T13:05:10.004Z,45.19
2023-04-10T13:07:37.448Z,43.50
2023-04-10T13:10:05.936Z,43.16
2023-04-10T13:12:32.762Z,43.90
2023-04-10T13:14:59.868Z,43.90
2023-04-10T13:17:26.611Z,44.94
2023-04-10T13:19:53.646Z,43.94
2023-04-10T13:22:20.862Z,44.45
2023-04-10T13:24:52.169Z,44.36
2023-04-10T13:27:21.101Z,44.29
2023-04-10T13:29:50.124Z,42.63
2023-04-10T13:32:16.974Z,42.53
2023-04-10T13:34:43.504Z,43.91
2023-04-10T13:37:13.101Z,44.53
2023-04-10T13:39:39.680Z,41.86
2023-04-10T13:42:08.951Z,43.75
2023-04-10T13:45:47.116Z,43.55
2023-04-10T13:48:59.807Z,43.42
2023-04-10T13:51:29.811Z,43.02
2023-04-10T13:54:02.837Z,42.61
2023-04-10T13:56:30.258Z,41.27
2023-04-10T13:58:57.095Z,42.21
2023-04-10T14:01:26.414Z,42.28
2023-04-10T14:03:55.538Z,42.49
2023-04-10T14:06:22.244Z,42.20
2023-04-10T14:08:48.877Z,42.16
2023-04-10T14:11:15.521Z,41.54
2023-04-10T14:13:42.124Z,41.79
2023-04-10T14:16:08.813Z,40.08
2023-04-10T14:18:36.560Z,40.65
2023-04-10T14:21:03.565Z,40.61
2023-04-10T14:23:32.405Z,40.41
2023-04-10T14:25:59.220Z,41.88
2023-04-10T14:28:25.755Z,42.42
2023-04-10T14:30:52.404Z,39.22
2023-04-10T14:33:20.058Z,38.27
2023-04-10T14:35:47.724Z,39.54
2023-04-10T14:38:16.638Z,39.42
2023-04-10T14:40:45.748Z,39.50
2023-04-10T14:43:12.409Z,38.26
2023-04-10T14:45:38.980Z,40.87
2023-04-10T14:48:05.850Z,41.26
2023-04-10T14:50:33.108Z,40.21
2023-04-10T14:53:00.654Z,38.53
2023-04-10T14:55:32.201Z,40.29
2023-04-10T14:57:59.044Z,39.30
2023-04-10T15:00:26.128Z,39.83
2023-04-10T15:02:57.281Z,39.98
2023-04-10T15:05:25.557Z,40.53
2023-04-10T15:07:57.380Z,39.96
2023-04-10T15:10:24.059Z,38.25
2023-04-10T15:12:53.606Z,38.58
2023-04-10T15:15:22.686Z,37.57
2023-04-10T15:17:49.547Z,37.57
2023-04-10T15:20:16.291Z,40.03
2023-04-10T15:22:43.370Z,38.83
2023-04-10T15:25:12.130Z,38.32
2023-04-10T15:27:41.795Z,37.25
2023-04-10T15:30:11.578Z,37.75
2023-04-10T15:32:38.648Z,38.24
2023-04-10T15:35:06.049Z,37.48
2023-04-10T15:37:35.584Z,38.95
2023-04-10T15:40:04.796Z,37.89
2023-04-10T15:42:33.644Z,39.21
2023-04-10T15:45:00.711Z,40.12
2023-04-10T15:47:30.105Z,38.48
2023-04-10T15:49:57.299Z,39.21
2023-04-10T15:52:23.827Z,38.65
2023-04-10T15:54:51.402Z,38.85
2023-04-10T15:57:18.222Z,39.32
2023-04-10T15:59:47.110Z,39.04
2023-04-10T16:02:16.311Z,38.80
2023-04-10T16:04:45.372Z,39.92
2023-04-10T16:07:11.980Z,40.27
2023-04-10T16:09:40.822Z,39.50
2023-04-10T16:12:07.475Z,40.19
2023-04-10T16:14:36.497Z,39.24
2023-04-10T16:17:07.684Z,39.56
2023-04-10T16:19:34.242Z,39.04
2023-04-10T16:22:00.785Z,40.42
2023-04-10T16:24:29.603Z,38.87
2023-04-10T16:26:58.472Z,39.10
2023-04-10T16:29:28.695Z,39.39
2023-04-10T16:31:55.458Z,38.66
2023-04-10T16:34:22.242Z,39.97
2023-04-10T16:36:48.829Z,39.28
2023-04-10T16:39:15.418Z,39.78
2023-04-10T16:41:42.010Z,39.77
2023-04-10T16:44:13.236Z,39.84
2023-04-10T16:46:39.928Z,39.93
2023-04-10T16:49:06.788Z,40.69
2023-04-10T16:51:33.406Z,40.56
2023-04-10T16:54:04.760Z,40.11
2023-04-10T16:56:32.614Z,39.57
2023-04-10T16:59:02.533Z,39.88
2023-04-10T17:01:31.597Z,39.73
2023-04-10T17:04:00.822Z,40.94
2023-04-10T17:06:29.657Z,40.64
2023-04-10T17:08:56.416Z,40.52
2023-04-10T17:11:23.324Z,40.81
2023-04-10T17:13:49.913Z,40.78
2023-04-10T17:16:16.538Z,40.50
2023-04-10T17:18:48.118Z,43.09
2023-04-10T17:21:14.789Z,41.71
2023-04-10T17:23:41.827Z,41.63
2023-04-10T17:26:15.887Z,41.36
2023-04-10T17:28:46.755Z,41.33
2023-04-10T17:31:14.296Z,42.11
2023-04-10T17:33:44.337Z,41.85
2023-04-10T17:36:15.331Z,42.77
2023-04-10T17:38:44.304Z,44.50
2023-04-10T17:41:16.027Z,44.75
2023-04-10T17:43:44.973Z,43.47
2023-04-10T17:46:15.463Z,44.22
2023-04-10T17:48:45.579Z,43.96
2023-04-10T17:51:12.371Z,43.57
2023-04-10T17:53:42.031Z,43.75
2023-04-10T17:56:16.625Z,45.14
2023-04-10T17:58:45.665Z,45.21
2023-04-10T18:01:12.772Z,45.82
2023-04-10T18:03:41.798Z,46.25
2023-04-10T18:06:10.598Z,46.23
2023-04-10T18:08:38.255Z,47.63
2023-04-10T18:11:07.633Z,48.02
2023-04-10T18:13:34.424Z,48.41
2023-04-10T18:16:02.422Z,48.16
2023-04-10T18:18:31.478Z,49.22
2023-04-10T18:21:00.307Z,49.60
2023-04-10T18:23:30.927Z,49.32
2023-04-10T18:25:57.497Z,49.55
2023-04-10T18:28:26.556Z,48.72
2023-04-10T18:30:56.864Z,49.21
2023-04-10T18:33:27.352Z,50.24
2023-04-10T18:35:59.089Z,51.61
2023-04-10T18:38:26.723Z,52.33
2023-04-10T18:40:59.918Z,52.08
2023-04-10T18:43:29.409Z,52.48
2023-04-10T18:45:56.099Z,52.54
2023-04-10T18:48:27.824Z,53.14
2023-04-10T18:50:56.870Z,54.71
2023-04-10T18:53:26.414Z,54.37
2023-04-10T18:55:53.893Z,55.13
2023-04-10T18:58:21.773Z,55.09
2023-04-10T19:00:50.942Z,56.72
2023-04-10T19:03:22.407Z,56.78
2023-04-10T19:05:49.354Z,57.89
2023-04-10T19:08:17.110Z,61.68
2023-04-10T19:10:43.706Z,66.23
2023-04-10T19:13:12.462Z,67.94
2023-04-10T19:15:45.908Z,68.19
2023-04-10T19:18:16.514Z,69.66
2023-04-10T19:20:52.087Z,70.88
2023-04-10T19:23:24.888Z,69.83
2023-04-10T19:25:59.587Z,68.66
2023-04-10T19:28:26.395Z,69.76
2023-04-10T19:30:52.975Z,69.10
2023-04-10T19:33:20.464Z,70.14
2023-04-10T19:35:49.354Z,71.27
2023-04-10T19:38:20.692Z,71.41
2023-04-10T19:40:47.460Z,71.87
2023-04-10T19:43:14.074Z,71.48
2023-04-10T19:45:40.767Z,72.92
2023-04-10T19:48:08.158Z,72.52
2023-04-10T19:50:37.063Z,72.49
2023-04-10T19:53:04.394Z,73.21
2023-04-10T19:55:36.100Z,72.39
2023-04-10T19:58:02.699Z,73.45
2023-04-10T20:00:32.016Z,73.35
2023-04-10T20:03:00.920Z,74.06
2023-04-10T20:05:30.465Z,73.74
2023-04-10T20:07:57.010Z,74.57
2023-04-10T20:10:23.732Z,74.06
2023-04-10T20:12:52.328Z,74.10
2023-04-10T20:15:20.545Z,74.29
2023-04-10T20:17:47.185Z,75.30
2023-04-10T20:20:13.915Z,75.75
2023-04-10T20:22:40.554Z,75.29
2023-04-10T20:25:10.143Z,75.11
2023-04-10T20:27:36.861Z,75.05
2023-04-10T20:30:04.250Z,75.33
2023-04-10T20:32:30.819Z,74.29
2023-04-10T20:34:59.737Z,74.33
2023-04-10T20:37:28.807Z,74.74
2023-04-10T20:39:57.524Z,74.25
2023-04-10T20:42:24.188Z,73.26
2023-04-10T20:44:53.842Z,72.76
2023-04-10T20:47:20.390Z,72.06
2023-04-10T20:49:49.402Z,72.82
2023-04-10T20:52:16.110Z,72.84
2023-04-10T20:54:42.688Z,72.91
2023-04-10T20:57:09.456Z,72.24
2023-04-10T20:59:36.739Z,72.59
2023-04-10T21:02:03.672Z,74.22
2023-04-10T21:04:30.525Z,73.77
2023-04-10T21:06:57.403Z,73.33
2023-04-10T21:09:24.308Z,72.81
2023-04-10T21:11:53.190Z,72.28
2023-04-10T21:14:22.244Z,71.29
2023-04-10T21:16:48.912Z,71.28
2023-04-10T21:19:17.622Z,70.29
2023-04-10T21:21:44.460Z,72.98
2023-04-10T21:24:13.394Z,73.51
2023-04-10T21:26:39.964Z,75.22
2023-04-10T21:29:06.641Z,75.88
2023-04-10T21:31:35.855Z,75.01
2023-04-10T21:34:02.501Z,73.40
2023-04-10T21:36:31.825Z,73.55
2023-04-10T21:39:00.842Z,73.27
2023-04-10T21:41:27.427Z,72.20
2023-04-10T21:43:56.657Z,71.92
2023-04-10T21:46:23.492Z,72.60
2023-04-10T21:48:50.991Z,73.62
2023-04-10T21:51:17.750Z,73.60
2023-04-10T21:53:44.311Z,73.19
2023-04-10T21:56:20.793Z,72.46
2023-04-10T21:58:47.392Z,73.21
2023-04-10T22:01:14.074Z,73.15
2023-04-10T22:03:40.825Z,72.36
2023-04-10T22:06:09.061Z,73.14
2023-04-10T22:08:38.472Z,73.78
2023-04-10T22:11:06.077Z,75.58
2023-04-10T22:13:32.877Z,76.89
2023-04-10T22:16:07.117Z,76.26
2023-04-10T22:18:36.628Z,75.78
2023-04-10T22:21:05.964Z,77.13
2023-04-10T22:23:32.556Z,76.89
2023-04-10T22:26:04.408Z,76.50
2023-04-10T22:28:33.491Z,76.83
2023-04-10T22:31:05.658Z,77.04
2023-04-10T22:33:33.332Z,76.55
2023-04-10T22:35:59.982Z,76.05
2023-04-10T22:38:26.680Z,75.32
2023-04-10T22:40:56.546Z,75.15
2023-04-10T22:43:25.672Z,75.73
2023-04-10T22:45:55.372Z,75.97
2023-04-10T22:48:24.581Z,77.20
2023-04-10T22:50:51.294Z,76.95
2023-04-10T22:53:20.822Z,77.78
2023-04-10T22:55:47.847Z,78.08
2023-04-10T22:58:16.989Z,78.25
2023-04-10T23:00:45.916Z,79.40
2023-04-10T23:03:12.657Z,80.02
2023-04-10T23:05:39.428Z,80.45
2023-04-10T23:08:06.085Z,79.73
2023-04-10T23:10:32.627Z,78.98
2023-04-10T23:12:59.493Z,79.91
2023-04-10T23:15:28.430Z,81.66
2023-04-10T23:17:55.127Z,81.19
2023-04-10T23:20:25.396Z,80.54
2023-04-10T23:22:52.120Z,80.51
2023-04-10T23:25:23.442Z,80.16
2023-04-10T23:27:53.555Z,79.97
2023-04-10T23:30:22.898Z,80.65
2023-04-10T23:32:49.520Z,79.94
2023-04-10T23:35:16.163Z,80.91
2023-04-10T23:37:42.735Z,81.77
2023-04-10T23:40:12.383Z,80.50
2023-04-10T23:42:38.968Z,80.50
2023-04-10T23:45:06.409Z,79.83
2023-04-10T23:47:35.281Z,80.52
2023-04-10T23:50:02.235Z,80.89
2023-04-10T23:52:29.037Z,80.14
2023-04-10T23:54:56.525Z,81.49
2023-04-10T23:57:25.323Z,82.26
2023-04-10T23:59:54.371Z,82.85
